sensor_id;sensor_type;location;lat;lon;timestamp;pressure;altitude;pressure_sealevel;temperature;humidity
9893;BME280;4985;49.092;8.542;2023-04-24T00:01:21;98284.06;;;19.06;51.86
9893;BME280;4985;49.092;8.542;2023-04-24T00:03:48;98271.53;;;19.07;51.87
9893;BME280;4985;49.092;8.542;2023-04-24T00:06:15;98273.38;;;19.06;51.87
9893;BME280;4985;49.092;8.542;2023-04-24T00:08:43;98273.38;;;19.06;51.87
9893;BME280;4985;49.092;8.542;2023-04-24T00:11:10;98265.38;;;19.06;51.88
9893;BME280;4985;49.092;8.542;2023-04-24T00:13:37;98267.25;;;19.06;51.87
9893;BME280;4985;49.092;8.542;2023-04-24T00:16:05;98266.44;;;19.05;51.87
9893;BME280;4985;49.092;8.542;2023-04-24T00:18:32;98261.09;;;19.05;51.88
9893;BME280;4985;49.092;8.542;2023-04-24T00:20:58;98259.25;;;19.06;51.88
9893;BME280;4985;49.092;8.542;2023-04-24T00:23:25;98262.72;;;19.06;51.86
9893;BME280;4985;49.092;8.542;2023-04-24T00:25:51;98267.25;;;19.06;51.86
9893;BME280;4985;49.092;8.542;2023-04-24T00:28:18;98268.06;;;19.06;51.86
9893;BME280;4985;49.092;8.542;2023-04-24T00:30:44;98276.06;;;19.06;51.87
9893;BME280;4985;49.092;8.542;2023-04-24T00:33:12;98269.09;;;19.05;51.87
9893;BME280;4985;49.092;8.542;2023-04-24T00:35:40;98274.69;;;19.04;51.89
9893;BME280;4985;49.092;8.542;2023-04-24T00:38:06;98272.81;;;19.04;51.88
9893;BME280;4985;49.092;8.542;2023-04-24T00:40:33;98269.34;;;19.04;51.89
9893;BME280;4985;49.092;8.542;2023-04-24T00:42:59;98272.25;;;19.02;51.89
9893;BME280;4985;49.092;8.542;2023-04-24T00:45:26;98270.41;;;19.03;51.89
9893;BME280;4985;49.092;8.542;2023-04-24T00:47:53;98265.88;;;19.03;51.89
9893;BME280;4985;49.092;8.542;2023-04-24T00:50:21;98260.75;;;19.02;51.89
9893;BME280;4985;49.092;8.542;2023-04-24T00:52:47;98266.34;;;19.00;51.89
9893;BME280;4985;49.092;8.542;2023-04-24T00:55:14;98264.47;;;19.01;51.91
9893;BME280;4985;49.092;8.542;2023-04-24T00:57:41;98269.81;;;19.01;51.92
9893;BME280;4985;49.092;8.542;2023-04-24T01:00:08;98256.72;;;18.99;51.94
9893;BME280;4985;49.092;8.542;2023-04-24T01:02:38;98263.69;;;19.00;51.92
9893;BME280;4985;49.092;8.542;2023-04-24T01:05:09;98261.25;;;18.99;51.92
9893;BME280;4985;49.092;8.542;2023-04-24T01:07:38;98254.06;;;18.99;51.93
9893;BME280;4985;49.092;8.542;2023-04-24T01:10:07;98248.72;;;18.99;51.92
9893;BME280;4985;49.092;8.542;2023-04-24T01:12:34;98247.69;;;19.00;51.93
9893;BME280;4985;49.092;8.542;2023-04-24T01:15:01;98243.41;;;18.99;51.91
9893;BME280;4985;49.092;8.542;2023-04-24T01:17:29;98243.88;;;18.96;51.93
9893;BME280;4985;49.092;8.542;2023-04-24T01:19:56;98249.78;;;18.98;51.93
9893;BME280;4985;49.092;8.542;2023-04-24T01:22:24;98253.25;;;18.99;51.93
9893;BME280;4985;49.092;8.542;2023-04-24T01:24:51;98258.59;;;18.99;51.92
9893;BME280;4985;49.092;8.542;2023-04-24T01:27:19;98253.50;;;18.97;51.94
9893;BME280;4985;49.092;8.542;2023-04-24T01:29:45;98247.37;;;18.97;51.94
9893;BME280;4985;49.092;8.542;2023-04-24T01:32:14;98247.37;;;18.97;51.94
9893;BME280;4985;49.092;8.542;2023-04-24T01:34:42;98242.84;;;18.97;51.93
9893;BME280;4985;49.092;8.542;2023-04-24T01:37:09;98246.56;;;18.96;51.93
9893;BME280;4985;49.092;8.542;2023-04-24T01:39:37;98244.12;;;18.95;51.94
9893;BME280;4985;49.092;8.542;2023-04-24T01:42:04;98238.00;;;18.94;51.94
9893;BME280;4985;49.092;8.542;2023-04-24T01:44:31;98244.94;;;18.95;51.95
9893;BME280;4985;49.092;8.542;2023-04-24T01:46:58;98244.12;;;18.95;51.95
9893;BME280;4985;49.092;8.542;2023-04-24T01:49:24;98230.44;;;18.91;51.95
9893;BME280;4985;49.092;8.542;2023-04-24T01:51:51;98237.19;;;18.94;51.96
9893;BME280;4985;49.092;8.542;2023-04-24T01:54:17;98229.44;;;18.92;51.98
9893;BME280;4985;49.092;8.542;2023-04-24T01:56:46;98234.75;;;18.92;51.99
9893;BME280;4985;49.092;8.542;2023-04-24T01:59:13;98227.78;;;18.91;51.99
9893;BME280;4985;49.092;8.542;2023-04-24T02:01:41;98232.09;;;18.92;51.99
9893;BME280;4985;49.092;8.542;2023-04-24T02:04:07;98225.97;;;18.92;52.00
9893;BME280;4985;49.092;8.542;2023-04-24T02:06:34;98226.97;;;18.90;52.01
9893;BME280;4985;49.092;8.542;2023-04-24T02:09:01;98225.37;;;18.89;52.03
9893;BME280;4985;49.092;8.542;2023-04-24T02:11:29;98230.69;;;18.89;52.03
9893;BME280;4985;49.092;8.542;2023-04-24T02:13:57;98233.37;;;18.89;52.05
9893;BME280;4985;49.092;8.542;2023-04-24T02:16:24;98233.63;;;18.88;52.06
9893;BME280;4985;49.092;8.542;2023-04-24T02:18:51;98230.94;;;18.88;52.07
9893;BME280;4985;49.092;8.542;2023-04-24T02:21:17;98232.81;;;18.87;52.08
9893;BME280;4985;49.092;8.542;2023-04-24T02:23:44;98240.00;;;18.87;52.08
9893;BME280;4985;49.092;8.542;2023-04-24T02:26:11;98226.66;;;18.87;52.08
9893;BME280;4985;49.092;8.542;2023-04-24T02:28:37;98229.34;;;18.87;52.08
9893;BME280;4985;49.092;8.542;2023-04-24T02:31:05;98231.19;;;18.86;52.09
9893;BME280;4985;49.092;8.542;2023-04-24T02:33:32;98233.06;;;18.86;52.10
9893;BME280;4985;49.092;8.542;2023-04-24T02:35:58;98235.72;;;18.86;52.09
9893;BME280;4985;49.092;8.542;2023-04-24T02:38:25;98234.09;;;18.85;52.09
9893;BME280;4985;49.092;8.542;2023-04-24T02:40:52;98234.91;;;18.85;52.10
9893;BME280;4985;49.092;8.542;2023-04-24T02:43:19;98234.09;;;18.85;52.07
9893;BME280;4985;49.092;8.542;2023-04-24T02:45:45;98235.97;;;18.84;52.08
9893;BME280;4985;49.092;8.542;2023-04-24T02:48:13;98229.03;;;18.83;52.12
9893;BME280;4985;49.092;8.542;2023-04-24T02:50:40;98228.22;;;18.83;52.13
9893;BME280;4985;49.092;8.542;2023-04-24T02:53:06;98227.41;;;18.82;52.14
9893;BME280;4985;49.092;8.542;2023-04-24T02:55:33;98230.06;;;18.82;52.13
9893;BME280;4985;49.092;8.542;2023-04-24T02:58:00;98241.53;;;18.83;52.12
9893;BME280;4985;49.092;8.542;2023-04-24T03:00:26;98230.88;;;18.83;52.12
9893;BME280;4985;49.092;8.542;2023-04-24T03:02:53;98234.59;;;18.82;52.13
9893;BME280;4985;49.092;8.542;2023-04-24T03:05:21;98230.31;;;18.81;52.13
9893;BME280;4985;49.092;8.542;2023-04-24T03:07:48;98228.47;;;18.81;52.13
9893;BME280;4985;49.092;8.542;2023-04-24T03:10:15;98228.47;;;18.81;52.12
9893;BME280;4985;49.092;8.542;2023-04-24T03:12:41;98233.78;;;18.81;52.12
9893;BME280;4985;49.092;8.542;2023-04-24T03:15:09;98232.97;;;18.81;52.13
9893;BME280;4985;49.092;8.542;2023-04-24T03:17:35;98239.34;;;18.80;52.14
9893;BME280;4985;49.092;8.542;2023-04-24T03:20:03;98233.69;;;18.76;52.14
9893;BME280;4985;49.092;8.542;2023-04-24T03:22:31;98244.09;;;18.78;52.15
9893;BME280;4985;49.092;8.542;2023-04-24T03:24:59;98249.44;;;18.78;52.16
9893;BME280;4985;49.092;8.542;2023-04-24T03:27:25;98250.50;;;18.77;52.19
9893;BME280;4985;49.092;8.542;2023-04-24T03:29:52;98256.06;;;18.75;52.21
9893;BME280;4985;49.092;8.542;2023-04-24T03:32:20;98254.44;;;18.74;52.24
9893;BME280;4985;49.092;8.542;2023-04-24T03:34:47;98260.84;;;18.73;52.25
9893;BME280;4985;49.092;8.542;2023-04-24T03:37:14;98259.22;;;18.72;52.28
9893;BME280;4985;49.092;8.542;2023-04-24T03:39:42;98261.09;;;18.72;52.31
9893;BME280;4985;49.092;8.542;2023-04-24T03:42:08;98280.78;;;18.71;52.32
9893;BME280;4985;49.092;8.542;2023-04-24T03:44:35;98286.37;;;18.69;52.35
9893;BME280;4985;49.092;8.542;2023-04-24T03:47:02;98289.03;;;18.69;52.36
9893;BME280;4985;49.092;8.542;2023-04-24T03:49:28;98286.59;;;18.68;52.35
9893;BME280;4985;49.092;8.542;2023-04-24T03:51:55;98293.78;;;18.67;52.38
9893;BME280;4985;49.092;8.542;2023-04-24T03:54:21;98302.56;;;18.68;52.39
9893;BME280;4985;49.092;8.542;2023-04-24T03:56:49;98298.28;;;18.67;52.38
9893;BME280;4985;49.092;8.542;2023-04-24T03:59:16;98305.47;;;18.66;52.38
9893;BME280;4985;49.092;8.542;2023-04-24T04:01:43;98314.53;;;18.65;52.40
9893;BME280;4985;49.092;8.542;2023-04-24T04:04:10;98309.19;;;18.65;52.42
9893;BME280;4985;49.092;8.542;2023-04-24T04:06:37;98303.88;;;18.65;52.42
9893;BME280;4985;49.092;8.542;2023-04-24T04:09:03;98314.53;;;18.65;52.43
9893;BME280;4985;49.092;8.542;2023-04-24T04:11:30;98319.84;;;18.65;52.43
9893;BME280;4985;49.092;8.542;2023-04-24T04:13:58;98316.37;;;18.65;52.43
9893;BME280;4985;49.092;8.542;2023-04-24T04:16:24;98324.37;;;18.65;52.44
9893;BME280;4985;49.092;8.542;2023-04-24T04:18:51;98328.91;;;18.64;52.45
9893;BME280;4985;49.092;8.542;2023-04-24T04:21:18;98328.91;;;18.64;52.45
9893;BME280;4985;49.092;8.542;2023-04-24T04:23:44;98331.78;;;18.62;52.45
9893;BME280;4985;49.092;8.542;2023-04-24T04:26:11;98336.06;;;18.63;52.45
9893;BME280;4985;49.092;8.542;2023-04-24T04:28:38;98347.78;;;18.62;52.46
9893;BME280;4985;49.092;8.542;2023-04-24T04:31:06;98339.78;;;18.62;52.47
9893;BME280;4985;49.092;8.542;2023-04-24T04:33:34;98330.16;;;18.61;52.47
9893;BME280;4985;49.092;8.542;2023-04-24T04:36:01;98337.34;;;18.61;52.48
9893;BME280;4985;49.092;8.542;2023-04-24T04:38:29;98346.16;;;18.61;52.49
9893;BME280;4985;49.092;8.542;2023-04-24T04:40:56;98343.75;;;18.60;52.48
9893;BME280;4985;49.092;8.542;2023-04-24T04:43:23;98356.00;;;18.61;52.48
9893;BME280;4985;49.092;8.542;2023-04-24T04:45:50;98354.41;;;18.60;52.48
9893;BME280;4985;49.092;8.542;2023-04-24T04:48:18;98355.22;;;18.60;52.48
9893;BME280;4985;49.092;8.542;2023-04-24T04:50:45;98355.22;;;18.60;52.49
9893;BME280;4985;49.092;8.542;2023-04-24T04:53:12;98365.88;;;18.60;52.48
9893;BME280;4985;49.092;8.542;2023-04-24T04:55:38;98370.16;;;18.61;52.46
9893;BME280;4985;49.092;8.542;2023-04-24T04:58:05;98367.72;;;18.60;52.45
9893;BME280;4985;49.092;8.542;2023-04-24T05:00:32;98369.34;;;18.61;52.45
9893;BME280;4985;49.092;8.542;2023-04-24T05:03:01;98373.06;;;18.60;52.45
9893;BME280;4985;49.092;8.542;2023-04-24T05:05:29;98375.16;;;18.58;52.43
9893;BME280;4985;49.092;8.542;2023-04-24T05:07:55;98378.37;;;18.60;52.44
9893;BME280;4985;49.092;8.542;2023-04-24T05:10:22;98381.06;;;18.60;52.44
9893;BME280;4985;49.092;8.542;2023-04-24T05:12:49;98387.19;;;18.60;52.43
9893;BME280;4985;49.092;8.542;2023-04-24T05:15:15;98389.28;;;18.58;52.44
9893;BME280;4985;49.092;8.542;2023-04-24T05:17:42;98381.88;;;18.60;52.44
9893;BME280;4985;49.092;8.542;2023-04-24T05:20:08;98397.28;;;18.58;52.44
9893;BME280;4985;49.092;8.542;2023-04-24T05:22:37;98409.00;;;18.57;52.47
9893;BME280;4985;49.092;8.542;2023-04-24T05:25:04;98403.66;;;18.57;52.46
9893;BME280;4985;49.092;8.542;2023-04-24T05:27:31;98412.69;;;18.56;52.48
9893;BME280;4985;49.092;8.542;2023-04-24T05:29:57;98398.53;;;18.56;52.50
9893;BME280;4985;49.092;8.542;2023-04-24T05:32:24;98402.00;;;18.56;52.50
9893;BME280;4985;49.092;8.542;2023-04-24T05:34:52;98403.06;;;18.55;52.50
9893;BME280;4985;49.092;8.542;2023-04-24T05:37:18;98417.19;;;18.56;52.52
9893;BME280;4985;49.092;8.542;2023-04-24T05:39:47;98421.72;;;18.55;52.51
9893;BME280;4985;49.092;8.542;2023-04-24T05:42:13;98426.47;;;18.53;52.52
9893;BME280;4985;49.092;8.542;2023-04-24T05:44:40;98426.25;;;18.55;52.52
9893;BME280;4985;49.092;8.542;2023-04-24T05:47:06;98437.72;;;18.55;52.52
9893;BME280;4985;49.092;8.542;2023-04-24T05:49:33;98430.75;;;18.54;52.53
9893;BME280;4985;49.092;8.542;2023-04-24T05:51:59;98426.25;;;18.55;52.51
9893;BME280;4985;49.092;8.542;2023-04-24T05:54:26;98429.63;;;18.50;52.53
9893;BME280;4985;49.092;8.542;2023-04-24T05:56:54;98433.44;;;18.54;52.53
9893;BME280;4985;49.092;8.542;2023-04-24T05:59:21;98429.16;;;18.53;52.54
9893;BME280;4985;49.092;8.542;2023-04-24T06:01:47;98439.00;;;18.53;52.55
9893;BME280;4985;49.092;8.542;2023-04-24T06:04:14;98447.00;;;18.53;52.56
9893;BME280;4985;49.092;8.542;2023-04-24T06:06:41;98440.84;;;18.52;52.57
9893;BME280;4985;49.092;8.542;2023-04-24T06:09:07;98439.81;;;18.53;52.59
9893;BME280;4985;49.092;8.542;2023-04-24T06:11:34;98443.53;;;18.52;52.58
9893;BME280;4985;49.092;8.542;2023-04-24T06:14:02;98439.81;;;18.53;52.59
9893;BME280;4985;49.092;8.542;2023-04-24T06:16:29;98443.53;;;18.52;52.58
9893;BME280;4985;49.092;8.542;2023-04-24T06:18:56;98448.03;;;18.52;52.59
9893;BME280;4985;49.092;8.542;2023-04-24T06:21:23;98447.22;;;18.51;52.60
9893;BME280;4985;49.092;8.542;2023-04-24T06:23:50;98454.19;;;18.52;52.61
9893;BME280;4985;49.092;8.542;2023-04-24T06:26:17;98454.19;;;18.52;52.60
9893;BME280;4985;49.092;8.542;2023-04-24T06:28:43;98459.50;;;18.52;52.59
9893;BME280;4985;49.092;8.542;2023-04-24T06:31:11;98452.56;;;18.51;52.63
9893;BME280;4985;49.092;8.542;2023-04-24T06:33:38;98462.41;;;18.51;52.66
9893;BME280;4985;49.092;8.542;2023-04-24T06:36:05;98463.22;;;18.51;52.66
9893;BME280;4985;49.092;8.542;2023-04-24T06:38:31;98461.37;;;18.52;52.64
9893;BME280;4985;49.092;8.542;2023-04-24T06:40:59;98464.28;;;18.50;52.67
9893;BME280;4985;49.092;8.542;2023-04-24T06:43:25;98467.75;;;18.51;52.67
9893;BME280;4985;49.092;8.542;2023-04-24T06:45:52;98469.59;;;18.50;52.68
9893;BME280;4985;49.092;8.542;2023-04-24T06:48:20;98461.59;;;18.50;52.69
9893;BME280;4985;49.092;8.542;2023-04-24T06:50:46;98466.94;;;18.50;52.70
9893;BME280;4985;49.092;8.542;2023-04-24T06:53:13;98460.78;;;18.50;52.70
9893;BME280;4985;49.092;8.542;2023-04-24T06:55:40;98460.78;;;18.50;52.71
9893;BME280;4985;49.092;8.542;2023-04-24T06:58:07;98469.84;;;18.49;52.72
9893;BME280;4985;49.092;8.542;2023-04-24T07:00:33;98464.50;;;18.49;52.71
9893;BME280;4985;49.092;8.542;2023-04-24T07:03:00;98475.16;;;18.49;52.72
9893;BME280;4985;49.092;8.542;2023-04-24T07:05:29;98459.63;;;18.46;52.70
9893;BME280;4985;49.092;8.542;2023-04-24T07:07:55;98461.03;;;18.48;52.72
9893;BME280;4985;49.092;8.542;2023-04-24T07:10:23;98464.50;;;18.49;52.70
9893;BME280;4985;49.092;8.542;2023-04-24T07:12:52;98471.69;;;18.48;52.71
9893;BME280;4985;49.092;8.542;2023-04-24T07:15:19;98473.53;;;18.48;52.73
9893;BME280;4985;49.092;8.542;2023-04-24T07:17:45;98461.28;;;18.47;52.73
9893;BME280;4985;49.092;8.542;2023-04-24T07:20:12;98457.78;;;18.46;52.72
9893;BME280;4985;49.092;8.542;2023-04-24T07:22:41;98480.12;;;18.45;52.74
9893;BME280;4985;49.092;8.542;2023-04-24T07:25:08;98468.66;;;18.45;52.77
9893;BME280;4985;49.092;8.542;2023-04-24T07:27:35;98475.84;;;18.44;52.76
9893;BME280;4985;49.092;8.542;2023-04-24T07:30:02;98475.84;;;18.44;52.75
9893;BME280;4985;49.092;8.542;2023-04-24T07:32:29;98477.47;;;18.45;52.76
9893;BME280;4985;49.092;8.542;2023-04-24T07:34:56;98490.22;;;18.43;52.77
9893;BME280;4985;49.092;8.542;2023-04-24T07:37:22;98497.16;;;18.44;52.78
9893;BME280;4985;49.092;8.542;2023-04-24T07:39:50;98505.16;;;18.44;52.79
9893;BME280;4985;49.092;8.542;2023-04-24T07:42:17;98497.16;;;18.44;52.80
9893;BME280;4985;49.092;8.542;2023-04-24T07:44:44;98504.34;;;18.44;52.79
9893;BME280;4985;49.092;8.542;2023-04-24T07:47:11;98496.34;;;18.44;52.79
9893;BME280;4985;49.092;8.542;2023-04-24T07:49:40;98501.91;;;18.42;52.81
9893;BME280;4985;49.092;8.542;2023-04-24T07:52:07;98511.53;;;18.43;52.82
9893;BME280;4985;49.092;8.542;2023-04-24T07:54:34;98516.88;;;18.43;52.85
9893;BME280;4985;49.092;8.542;2023-04-24T07:57:02;98519.53;;;18.43;52.86
9893;BME280;4985;49.092;8.542;2023-04-24T07:59:28;98523.00;;;18.44;52.85
9893;BME280;4985;49.092;8.542;2023-04-24T08:01:55;98524.63;;;18.45;52.83
9893;BME280;4985;49.092;8.542;2023-04-24T08:04:22;98515.47;;;18.41;52.82
9893;BME280;4985;49.092;8.542;2023-04-24T08:06:48;98526.47;;;18.44;52.84
9893;BME280;4985;49.092;8.542;2023-04-24T08:09:15;98525.66;;;18.44;52.84
9893;BME280;4985;49.092;8.542;2023-04-24T08:11:41;98543.50;;;18.43;52.84
9893;BME280;4985;49.092;8.542;2023-04-24T08:14:09;98533.91;;;18.42;52.84
9893;BME280;4985;49.092;8.542;2023-04-24T08:16:38;98554.16;;;18.43;52.85
9893;BME280;4985;49.092;8.542;2023-04-24T08:19:04;98562.97;;;18.44;52.84
9893;BME280;4985;49.092;8.542;2023-04-24T08:21:31;98572.81;;;18.43;52.85
9893;BME280;4985;49.092;8.542;2023-04-24T08:23:58;98570.16;;;18.43;52.82
9893;BME280;4985;49.092;8.542;2023-04-24T08:26:24;98592.53;;;18.42;52.82
9893;BME280;4985;49.092;8.542;2023-04-24T08:28:51;98583.72;;;18.42;52.84
9893;BME280;4985;49.092;8.542;2023-04-24T08:31:19;98590.91;;;18.41;52.87
9893;BME280;4985;49.092;8.542;2023-04-24T08:33:45;98596.22;;;18.41;52.87
9893;BME280;4985;49.092;8.542;2023-04-24T08:36:12;98589.84;;;18.42;52.88
9893;BME280;4985;49.092;8.542;2023-04-24T08:38:39;98585.56;;;18.41;52.89
9893;BME280;4985;49.092;8.542;2023-04-24T08:41:07;98587.19;;;18.42;52.90
9893;BME280;4985;49.092;8.542;2023-04-24T08:43:34;98583.47;;;18.43;52.88
9893;BME280;4985;49.092;8.542;2023-04-24T08:46:03;98585.09;;;18.44;52.88
9893;BME280;4985;49.092;8.542;2023-04-24T08:48:31;98601.09;;;18.44;52.85
9893;BME280;4985;49.092;8.542;2023-04-24T08:50:59;98601.09;;;18.44;52.85
9893;BME280;4985;49.092;8.542;2023-04-24T08:53:26;98606.41;;;18.44;52.87
9893;BME280;4985;49.092;8.542;2023-04-24T08:55:54;98626.12;;;18.43;52.88
9893;BME280;4985;49.092;8.542;2023-04-24T08:58:22;98626.59;;;18.40;52.89
9893;BME280;4985;49.092;8.542;2023-04-24T09:00:49;98629.81;;;18.42;52.95
9893;BME280;4985;49.092;8.542;2023-04-24T09:03:16;98633.06;;;18.44;52.98
9893;BME280;4985;49.092;8.542;2023-04-24T09:05:46;98621.84;;;18.42;52.96
9893;BME280;4985;49.092;8.542;2023-04-24T09:08:16;98626.94;;;18.44;52.92
9893;BME280;4985;49.092;8.542;2023-04-24T09:10:44;98620.78;;;18.43;52.92
9893;BME280;4985;49.092;8.542;2023-04-24T09:13:11;98617.69;;;18.46;52.91
9893;BME280;4985;49.092;8.542;2023-04-24T09:15:38;98614.19;;;18.46;52.91
9893;BME280;4985;49.092;8.542;2023-04-24T09:18:05;98625.69;;;18.46;52.91
9893;BME280;4985;49.092;8.542;2023-04-24T09:20:32;98624.03;;;18.45;52.90
9893;BME280;4985;49.092;8.542;2023-04-24T09:23:02;98615.03;;;18.46;52.89
9893;BME280;4985;49.092;8.542;2023-04-24T09:25:31;98615.03;;;18.46;52.89
9893;BME280;4985;49.092;8.542;2023-04-24T09:28:00;98624.62;;;18.47;52.88
9893;BME280;4985;49.092;8.542;2023-04-24T09:30:28;98619.31;;;18.47;52.90
9893;BME280;4985;49.092;8.542;2023-04-24T09:33:10;98613.97;;;18.47;52.92
9893;BME280;4985;49.092;8.542;2023-04-24T09:35:40;98617.44;;;18.48;52.92
9893;BME280;4985;49.092;8.542;2023-04-24T09:38:09;98627.31;;;18.47;52.92
9893;BME280;4985;49.092;8.542;2023-04-24T09:40:35;98634.25;;;18.48;52.90
9893;BME280;4985;49.092;8.542;2023-04-24T09:43:02;98625.44;;;18.48;52.91
9893;BME280;4985;49.092;8.542;2023-04-24T09:45:35;98637.72;;;18.49;52.91
9893;BME280;4985;49.092;8.542;2023-04-24T09:48:02;98637.97;;;18.47;52.90
9893;BME280;4985;49.092;8.542;2023-04-24T09:50:30;98647.56;;;18.48;52.89
9893;BME280;4985;49.092;8.542;2023-04-24T09:52:58;98643.28;;;18.47;52.89
9893;BME280;4985;49.092;8.542;2023-04-24T09:55:27;98663.56;;;18.48;52.89
9893;BME280;4985;49.092;8.542;2023-04-24T09:57:55;98665.41;;;18.48;52.87
9893;BME280;4985;49.092;8.542;2023-04-24T10:00:23;98665.41;;;18.48;52.86
9893;BME280;4985;49.092;8.542;2023-04-24T10:02:51;98661.94;;;18.47;52.87
9893;BME280;4985;49.092;8.542;2023-04-24T10:05:18;98660.31;;;18.46;52.90
9893;BME280;4985;49.092;8.542;2023-04-24T10:07:46;98667.03;;;18.49;52.90
9893;BME280;4985;49.092;8.542;2023-04-24T10:10:12;98667.84;;;18.49;52.88
9893;BME280;4985;49.092;8.542;2023-04-24T10:12:41;98662.75;;;18.48;52.89
9893;BME280;4985;49.092;8.542;2023-04-24T10:15:10;98661.72;;;18.49;52.90
9893;BME280;4985;49.092;8.542;2023-04-24T10:17:39;98668.91;;;18.48;52.89
9893;BME280;4985;49.092;8.542;2023-04-24T10:20:07;98667.03;;;18.49;52.90
9893;BME280;4985;49.092;8.542;2023-04-24T10:22:33;98666.22;;;18.48;52.90
9893;BME280;4985;49.092;8.542;2023-04-24T10:25:03;98670.53;;;18.49;52.92
9893;BME280;4985;49.092;8.542;2023-04-24T10:27:31;98667.84;;;18.49;52.91
9893;BME280;4985;49.092;8.542;2023-04-24T10:30:00;98667.03;;;18.49;52.90
9893;BME280;4985;49.092;8.542;2023-04-24T10:32:27;98678.50;;;18.49;52.93
9893;BME280;4985;49.092;8.542;2023-04-24T10:34:55;98662.53;;;18.49;52.96
9893;BME280;4985;49.092;8.542;2023-04-24T10:37:23;98662.28;;;18.51;53.00
9893;BME280;4985;49.092;8.542;2023-04-24T10:39:49;98664.16;;;18.50;52.99
9893;BME280;4985;49.092;8.542;2023-04-24T10:42:19;98658.59;;;18.52;53.00
9893;BME280;4985;49.092;8.542;2023-04-24T10:44:47;98671.09;;;18.51;53.00
9893;BME280;4985;49.092;8.542;2023-04-24T10:47:15;98667.37;;;18.52;52.99
9893;BME280;4985;49.092;8.542;2023-04-24T10:49:42;98677.81;;;18.54;52.97
9893;BME280;4985;49.092;8.542;2023-04-24T10:52:09;98684.19;;;18.53;52.96
9893;BME280;4985;49.092;8.542;2023-04-24T10:54:41;98698.31;;;18.53;52.97
9893;BME280;4985;49.092;8.542;2023-04-24T10:57:27;98698.91;;;18.55;52.93
9893;BME280;4985;49.092;8.542;2023-04-24T11:00:14;98695.66;;;18.53;52.89
9893;BME280;4985;49.092;8.542;2023-04-24T11:02:42;98693.56;;;18.55;52.91
9893;BME280;4985;49.092;8.542;2023-04-24T11:05:14;98694.38;;;18.56;52.87
9893;BME280;4985;49.092;8.542;2023-04-24T11:08:09;98694.38;;;18.56;52.87
9893;BME280;4985;49.092;8.542;2023-04-24T11:10:38;98699.72;;;18.56;52.89
9893;BME280;4985;49.092;8.542;2023-04-24T11:13:05;98697.75;;;18.51;52.92
9893;BME280;4985;49.092;8.542;2023-04-24T11:15:32;98695.44;;;18.55;52.95
9893;BME280;4985;49.092;8.542;2023-04-24T11:17:59;98692.53;;;18.56;52.95
9893;BME280;4985;49.092;8.542;2023-04-24T11:20:27;98705.84;;;18.56;52.98
9893;BME280;4985;49.092;8.542;2023-04-24T11:22:54;98697.28;;;18.54;52.99
9893;BME280;4985;49.092;8.542;2023-04-24T11:25:22;98721.84;;;18.56;52.98
9893;BME280;4985;49.092;8.542;2023-04-24T11:27:50;98721.84;;;18.56;52.96
9893;BME280;4985;49.092;8.542;2023-04-24T11:30:29;98723.50;;;18.57;52.97
9893;BME280;4985;49.092;8.542;2023-04-24T11:33:03;98727.19;;;18.56;52.95
9893;BME280;4985;49.092;8.542;2023-04-24T11:35:35;98746.44;;;18.58;52.92
9893;BME280;4985;49.092;8.542;2023-04-24T11:38:02;98751.78;;;18.58;52.91
9893;BME280;4985;49.092;8.542;2023-04-24T11:40:30;98748.31;;;18.58;52.93
9893;BME280;4985;49.092;8.542;2023-04-24T11:42:59;98738.66;;;18.57;52.96
9893;BME280;4985;49.092;8.542;2023-04-24T11:45:29;98748.88;;;18.60;52.95
9893;BME280;4985;49.092;8.542;2023-04-24T11:47:56;98752.34;;;18.60;52.96
9893;BME280;4985;49.092;8.542;2023-04-24T11:50:26;98751.31;;;18.61;52.97
9893;BME280;4985;49.092;8.542;2023-04-24T11:52:55;98753.97;;;18.61;52.97
9893;BME280;4985;49.092;8.542;2023-04-24T11:55:28;98755.59;;;18.62;52.95
9893;BME280;4985;49.092;8.542;2023-04-24T11:57:57;98756.66;;;18.61;52.94
9893;BME280;4985;49.092;8.542;2023-04-24T12:00:25;98764.41;;;18.63;52.94
9893;BME280;4985;49.092;8.542;2023-04-24T12:03:03;98765.22;;;18.63;52.95
9893;BME280;4985;49.092;8.542;2023-04-24T12:05:32;98769.53;;;18.65;52.91
9893;BME280;4985;49.092;8.542;2023-04-24T12:07:59;98771.59;;;18.62;52.90
9893;BME280;4985;49.092;8.542;2023-04-24T12:10:27;98781.44;;;18.62;52.91
9893;BME280;4985;49.092;8.542;2023-04-24T12:12:56;98781.22;;;18.63;52.90
9893;BME280;4985;49.092;8.542;2023-04-24T12:15:23;98794.13;;;18.67;52.87
9893;BME280;4985;49.092;8.542;2023-04-24T12:17:51;98795.75;;;18.68;52.86
9893;BME280;4985;49.092;8.542;2023-04-24T12:20:24;98798.41;;;18.68;52.87
9893;BME280;4985;49.092;8.542;2023-04-24T12:22:53;98791.44;;;18.67;52.88
9893;BME280;4985;49.092;8.542;2023-04-24T12:25:21;98793.06;;;18.68;52.89
9893;BME280;4985;49.092;8.542;2023-04-24T12:27:53;98782.41;;;18.68;52.89
9893;BME280;4985;49.092;8.542;2023-04-24T12:30:21;98786.12;;;18.67;52.92
9893;BME280;4985;49.092;8.542;2023-04-24T12:32:49;98788.56;;;18.68;52.93
9893;BME280;4985;49.092;8.542;2023-04-24T12:35:19;98781.59;;;18.67;52.94
9893;BME280;4985;49.092;8.542;2023-04-24T12:37:46;98783.22;;;18.68;52.95
9893;BME280;4985;49.092;8.542;2023-04-24T12:40:15;98771.53;;;18.69;52.95
9893;BME280;4985;49.092;8.542;2023-04-24T12:42:43;98753.31;;;18.66;52.93
9893;BME280;4985;49.092;8.542;2023-04-24T12:45:10;98771.91;;;18.73;52.94
9893;BME280;4985;49.092;8.542;2023-04-24T12:47:38;98769.22;;;18.73;52.94
9893;BME280;4985;49.092;8.542;2023-04-24T12:50:06;98764.72;;;18.73;52.93
9893;BME280;4985;49.092;8.542;2023-04-24T12:52:33;98770.03;;;18.73;52.93
9893;BME280;4985;49.092;8.542;2023-04-24T12:55:00;98754.84;;;18.74;52.92
9893;BME280;4985;49.092;8.542;2023-04-24T12:57:29;98764.72;;;18.73;52.92
9893;BME280;4985;49.092;8.542;2023-04-24T12:59:58;98754.03;;;18.73;52.92
9893;BME280;4985;49.092;8.542;2023-04-24T13:02:27;98765.53;;;18.74;52.90
9893;BME280;4985;49.092;8.542;2023-04-24T13:04:54;98756.47;;;18.75;52.90
9893;BME280;4985;49.092;8.542;2023-04-24T13:07:21;98751.16;;;18.75;52.90
9893;BME280;4985;49.092;8.542;2023-04-24T13:09:49;98751.16;;;18.75;52.90
9893;BME280;4985;49.092;8.542;2023-04-24T13:12:16;98760.19;;;18.74;52.91
9893;BME280;4985;49.092;8.542;2023-04-24T13:14:44;98758.56;;;18.73;52.92
9893;BME280;4985;49.092;8.542;2023-04-24T13:17:11;98746.03;;;18.73;52.95
9893;BME280;4985;49.092;8.542;2023-04-24T13:19:41;98750.34;;;18.74;52.95
9893;BME280;4985;49.092;8.542;2023-04-24T13:22:09;98744.19;;;18.74;52.96
9893;BME280;4985;49.092;8.542;2023-04-24T13:24:37;98751.16;;;18.75;52.97